Latest Weather Observations for Cocos Island

IDW60801

Issued at 8:32 am WST Monday 3 August 2015 (issued every 30 minutes, with the page automatically refreshed every 10 minutes)

About weather observations | Map of weather stations | Latest weather observations for WA | Other Formats
Station Details ID: 200284 Name: COCOS ISLAND AIRPORT Lat: -12.19 Lon: 96.83 Height: 3.0 m
Data from the previous 72 hours. | See also: Recent months at Cocos Island
Date/Time
WST
Temp
°C
App
Temp
°C
Dew
Point
Rel
Hum
%
Delta-T
°C
Wind Press
QNH
hPa
Press
MSL
hPa
Rain
since 9 am
mm
Dir
 
Spd
km/h
Gust
km/h
Spd
kts
Gust
kts
03/08:30am 26.5 25.6 21.4 73 3.4 ESE 28 35 15 19 1015.0 - 1.4
03/08:00am 26.3 25.3 21.3 74 3.3 ESE 28 37 15 20 1014.8 1014.8 1.4
03/07:30am 26.2 26.2 21.7 76 3.0 ESE 24 32 13 17 1014.7 - 1.4
03/07:00am 26.3 25.6 21.8 76 3.0 ESE 28 35 15 19 1014.5 - 1.4
03/06:30am 26.3 25.9 21.6 75 3.1 ESE 26 37 14 20 1014.3 - 1.4
03/06:00am 26.0 26.0 21.6 76 2.9 ESE 24 33 13 18 1014.0 - 1.4
03/05:30am 26.1 25.7 21.6 76 3.0 ESE 26 37 14 20 1013.6 - 1.4
03/05:00am 26.1 25.5 21.3 75 3.2 ESE 26 39 14 21 1013.7 1013.7 1.4
03/04:30am 26.2 25.1 21.7 76 3.0 ESE 30 35 16 19 1014.0 - 1.4
03/04:00am 26.1 24.6 21.7 77 2.9 ESE 32 41 17 22 1014.3 - 1.4
03/03:30am 26.1 25.2 22.2 79 2.6 ESE 30 39 16 21 1014.5 - 1.4
03/03:00am 26.2 24.8 21.9 77 2.9 ESE 32 43 17 23 1014.7 - 1.4
03/02:30am 26.2 25.6 21.9 77 2.9 ESE 28 37 15 20 1015.2 - 1.4
03/02:00am 26.3 24.7 21.6 75 3.1 ESE 32 43 17 23 1015.4 1015.4 1.4
03/01:30am 26.4 25.3 21.7 75 3.1 ESE 30 41 16 22 1015.8 - 1.4
03/01:00am 26.6 25.0 21.8 75 3.2 ESE 33 43 18 23 1016.1 - 1.4
03/12:30am 26.6 25.0 21.8 75 3.2 ESE 33 44 18 24 1016.3 - 1.4
03/12:00am 26.5 26.1 23.1 81 2.3 SE 30 37 16 20 1016.5 - 1.4
 
Date/Time
WST
Temp
°C
App
Temp
°C
Dew
Point
Rel
Hum
%
Delta-T
°C
Wind Press
QNH
hPa
Press
MSL
hPa
Rain
since 9 am
mm
Dir
 
Spd
km/h
Gust
km/h
Spd
kts
Gust
kts
02/11:30pm 26.8 24.7 21.7 73 3.4 ESE 35 44 19 24 1016.5 - 1.4
02/11:00pm 26.7 25.3 22.9 79 2.6 ESE 35 46 19 25 1016.5 1016.5 1.4
02/10:54pm 26.6 25.7 22.8 79 2.6 ESE 32 41 17 22 1016.3 - 1.4
02/10:44pm 25.6 26.2 23.4 88 1.5 SE 26 35 14 19 1016.3 - 1.4
02/10:37pm 24.2 21.7 22.4 90 1.2 S 39 46 21 25 1016.3 - 1.2
02/10:35pm 24.1 20.7 22.1 88 1.3 S 43 46 23 25 1016.4 - 1.2
02/10:30pm 25.5 23.8 21.3 77 2.8 SE 32 50 17 27 1016.3 - 1.2
02/10:27pm 25.5 24.5 21.9 80 2.4 SE 30 44 16 24 1016.5 - 1.2
02/10:00pm 26.6 28.5 22.8 79 2.6 ESE 17 26 9 14 1016.4 - 1.2
02/09:30pm 26.6 27.3 22.3 77 2.9 E 22 30 12 16 1016.2 - 1.2
02/09:00pm 26.5 26.2 21.9 76 3.1 ESE 26 35 14 19 1016.1 - 1.2
02/08:30pm 25.1 23.9 22.6 86 1.7 ESE 33 48 18 26 1015.6 - 1.2
02/08:21pm 25.6 25.3 22.5 83 2.1 ESE 28 46 15 25 1015.5 - 1.2
02/08:00pm 25.8 26.6 21.3 76 3.0 ESE 19 24 10 13 1015.2 1015.2 1.2
02/07:54pm 25.4 25.5 20.3 73 3.3 SE 20 26 11 14 1015.2 - 1.2
02/07:37pm 24.4 22.6 21.2 82 2.1 ESE 32 46 17 25 1015.2 - 1.2
02/07:30pm 24.9 23.6 21.3 80 2.4 ESE 30 43 16 23 1015.1 - 0.8
02/07:27pm 25.0 24.1 21.4 80 2.4 ESE 28 43 15 23 1015.2 - 0.8
02/07:08pm 25.3 24.2 22.5 84 1.9 E 32 44 17 24 1014.9 - 0.4
02/07:00pm 26.9 27.2 22.3 76 3.1 ESE 24 37 13 20 1014.8 - 0.2
02/06:30pm 27.0 27.5 22.6 77 3.0 ESE 24 35 13 19 1014.7 - 0.2
02/06:00pm 26.4 25.9 22.1 77 2.9 ESE 28 39 15 21 1014.4 - 0.2
02/05:30pm 26.6 26.4 22.0 76 3.1 ESE 26 41 14 22 1014.3 - 0.2
02/05:00pm 28.3 28.7 23.2 74 3.5 E 26 33 14 18 1014.1 1014.1 0.2
02/04:30pm 28.3 28.8 22.7 71 3.8 E 24 35 13 19 1014.2 - 0.2
02/04:00pm 27.3 26.1 22.2 73 3.4 ESE 32 41 17 22 1014.2 - 0.2
02/03:30pm 28.0 27.7 22.5 72 3.7 ESE 28 39 15 21 1014.3 - 0.2
02/03:00pm 27.9 27.8 22.9 74 3.4 ESE 28 39 15 21 1014.6 - 0.2
02/02:30pm 28.3 28.0 23.3 74 3.4 E 30 41 16 22 1014.9 - 0.2
02/02:00pm 28.4 28.4 23.1 73 3.6 E 28 39 15 21 1015.0 1015.0 0.2
02/01:30pm 28.2 28.3 23.2 74 3.4 E 28 41 15 22 1015.3 - 0.2
02/01:00pm 27.6 27.0 22.7 74 3.3 E 30 41 16 22 1015.4 - 0.2
02/12:30pm 27.3 26.2 22.4 74 3.3 ESE 32 43 17 23 1015.5 - 0.2
02/12:00pm 27.0 25.9 22.9 78 2.8 E 33 43 18 23 1015.8 - 0.0
02/11:30am 27.4 26.6 23.0 77 3.0 E 32 41 17 22 1015.8 - 0.0
02/11:00am 27.2 27.1 22.9 77 2.9 E 28 39 15 21 1015.8 1015.8 22.6
02/10:30am 26.2 25.4 22.3 79 2.6 E 30 41 16 22 1015.8 - 22.6
02/10:12am 25.3 26.9 23.2 88 1.4 ESE 20 32 11 17 1015.7 - 22.6
02/10:00am 24.8 23.3 22.7 88 1.4 ENE 35 41 19 22 1015.7 - 21.4
02/09:49am 24.9 25.3 22.5 86 1.6 E 24 33 13 18 1015.9 - 19.2
02/09:39am 25.7 26.4 22.9 84 1.9 E 24 33 13 18 1015.8 - 18.8
02/09:30am 25.7 26.2 22.6 83 2.1 E 24 33 13 18 1015.6 - 18.8
02/09:00am 25.5 25.9 22.5 83 2.0 ESE 24 37 13 20 1015.6 - 18.8
02/08:30am 25.8 26.7 22.7 83 2.1 E 22 30 12 16 1015.1 - 18.8
02/08:00am 25.8 26.5 23.0 84 1.9 E 24 33 13 18 1014.7 1014.7 18.8
02/07:30am 25.3 26.0 22.9 86 1.6 E 24 39 13 21 1014.4 - 18.8
02/07:00am 25.7 26.6 22.6 83 2.1 ESE 22 32 12 17 1014.1 - 18.6
02/06:55am 25.6 27.0 22.8 84 1.9 ESE 20 32 11 17 1014.0 - 18.6
02/06:44am 25.0 24.0 22.6 86 1.6 ENE 32 46 17 25 1014.0 - 18.2
02/06:30am 25.3 27.2 22.8 86 1.7 E 17 22 9 12 1014.0 - 17.6
02/06:00am 26.1 27.2 22.4 80 2.5 E 20 30 11 16 1014.0 - 17.0
02/05:30am 26.1 27.2 22.4 80 2.5 E 20 26 11 14 1013.9 - 17.0
02/05:00am 26.1 26.7 22.1 78 2.7 E 22 30 12 16 1014.0 1014.0 17.0
02/04:30am 26.2 26.7 22.0 77 2.8 E 22 33 12 18 1014.1 - 17.0
02/04:00am 26.1 26.5 21.7 77 2.9 E 22 28 12 15 1014.5 - 17.0
02/03:30am 26.1 27.0 21.9 77 2.8 E 20 32 11 17 1014.8 - 17.0
02/03:00am 26.1 27.3 22.5 80 2.4 ESE 20 32 11 17 1015.0 - 17.0
02/02:30am 26.2 26.5 22.2 78 2.7 E 24 32 13 17 1015.3 - 17.0
02/02:00am 25.9 26.7 21.4 76 3.0 E 19 26 10 14 1015.6 1015.6 17.0
02/01:30am 25.9 24.2 20.6 72 3.5 E 30 37 16 20 1016.1 - 17.0
02/01:00am 25.9 24.9 21.2 75 3.1 E 28 39 15 21 1016.2 - 17.0
02/12:30am 25.7 23.4 22.0 80 2.5 E 37 48 20 26 1016.1 - 17.0
02/12:00am 26.0 23.4 22.1 79 2.6 E 39 48 21 26 1015.9 - 17.0
 
Date/Time
WST
Temp
°C
App
Temp
°C
Dew
Point
Rel
Hum
%
Delta-T
°C
Wind Press
QNH
hPa
Press
MSL
hPa
Rain
since 9 am
mm
Dir
 
Spd
km/h
Gust
km/h
Spd
kts
Gust
kts
01/11:30pm 26.0 25.9 22.9 83 2.1 E 28 39 15 21 1016.2 - 17.0
01/11:00pm 25.6 26.2 23.5 88 1.4 E 26 32 14 17 1015.9 1015.9 16.0
01/10:40pm 25.5 20.8 22.1 81 2.3 E 50 57 27 31 1015.7 - 12.8
01/10:38pm 26.8 26.6 22.8 79 2.7 ESE 28 46 15 25 1015.7 - 12.8
01/10:30pm 26.9 26.4 22.1 75 3.2 ESE 28 37 15 20 1015.4 - 12.8
01/10:00pm 26.9 26.5 22.3 76 3.1 ESE 28 35 15 19 1015.3 - 12.8
01/09:30pm 26.8 26.4 22.3 76 3.0 E 28 37 15 20 1014.8 - 12.8
01/09:00pm 26.7 27.1 22.4 77 2.9 E 24 35 13 19 1014.4 - 12.8
01/08:30pm 25.4 26.7 23.3 88 1.4 SE 22 33 12 18 1014.1 - 12.8
01/08:00pm 25.2 25.2 23.0 87 1.5 ESE 28 50 15 27 1013.9 1013.9 12.4
01/07:30pm 26.0 24.5 22.7 82 2.2 E 35 43 19 23 1013.6 - 11.6
01/07:00pm 25.4 24.9 23.5 89 1.3 ENE 32 56 17 30 1013.5 - 11.0
01/06:56pm 25.5 25.6 23.3 88 1.5 ENE 28 50 15 27 1013.5 - 9.0
01/06:30pm 25.5 24.5 23.7 90 1.2 ENE 35 46 19 25 1013.4 - 9.0
01/06:00pm 27.1 27.3 22.8 77 2.9 ESE 26 37 14 20 1013.1 - 9.0
01/05:30pm 27.1 26.0 22.4 75 3.2 ESE 32 43 17 23 1012.9 - 9.0
01/05:00pm 27.3 26.5 22.4 74 3.3 ESE 30 41 16 22 1013.0 1013.0 9.0
01/04:30pm 28.0 27.8 22.7 73 3.6 ESE 28 41 15 22 1012.9 - 9.0
01/04:00pm 28.2 28.3 23.2 74 3.4 E 28 39 15 21 1012.9 - 9.0
01/03:30pm 28.2 27.2 22.6 71 3.8 E 32 44 17 24 1013.1 - 9.0
01/03:00pm 27.4 26.6 23.0 77 3.0 ESE 32 44 17 24 1013.5 - 9.0
01/02:30pm 28.0 28.3 23.0 74 3.4 E 26 37 14 20 1013.9 - 9.0
01/02:00pm 28.1 28.1 23.1 74 3.4 ESE 28 37 15 20 1014.1 1014.1 9.0
01/01:30pm 28.5 28.3 22.8 71 3.9 ESE 28 39 15 21 1014.3 - 9.0
01/01:00pm 27.9 27.1 22.3 71 3.8 ESE 30 41 16 22 1014.5 - 9.0
01/12:30pm 27.5 26.9 22.6 74 3.3 E 30 43 16 23 1014.7 - 9.0
01/12:00pm 26.4 26.5 22.5 79 2.6 ESE 26 39 14 21 1014.9 - 9.0
01/11:49am 25.6 26.8 23.2 86 1.6 E 22 30 12 16 1014.9 - 9.0
01/11:37am 24.6 22.3 21.3 82 2.2 ESE 35 46 19 25 1015.3 - 8.8
01/11:30am 24.2 23.0 22.7 91 1.0 E 33 46 18 25 1015.3 - 7.0
01/11:24am 24.5 22.6 22.7 90 1.2 E 37 50 20 27 1015.4 - 2.2
01/11:18am 25.3 23.3 22.6 85 1.8 E 37 50 20 27 1015.2 - 0.0
01/11:00am 27.2 26.7 22.1 73 3.4 ESE 28 35 15 19 1015.2 1015.2 0.6
01/10:30am 27.7 28.1 22.4 73 3.6 ESE 24 35 13 19 1015.2 - 0.6
01/10:00am 27.4 27.6 22.0 72 3.6 E 24 35 13 19 1015.1 - 0.6
01/09:30am 27.0 26.8 22.1 74 3.3 ESE 26 39 14 21 1014.8 - 0.6
01/09:00am 26.4 25.5 22.2 78 2.8 ESE 30 41 16 22 1014.3 - 0.6
01/08:30am 26.4 25.9 22.2 78 2.8 E 28 35 15 19 1014.0 - 0.6
01/08:00am 26.2 26.7 22.6 80 2.4 ESE 24 39 13 21 1013.7 1013.7 0.6
01/07:30am 26.4 25.5 22.2 78 2.8 ESE 30 37 16 20 1013.4 - 0.6
01/07:00am 26.4 27.4 22.1 77 2.9 E 20 30 11 16 1013.3 - 0.6
01/06:30am 26.4 27.0 22.1 77 2.9 ESE 22 32 12 17 1013.1 - 0.6
01/06:00am 26.3 25.7 21.2 73 3.4 E 26 37 14 20 1013.1 - 0.6
01/05:30am 26.4 25.9 22.1 77 2.9 E 28 37 15 20 1013.1 - 0.6
01/05:00am 26.5 27.0 21.9 76 3.1 ESE 22 32 12 17 1013.2 1013.2 0.6
01/04:30am 26.4 25.9 21.4 74 3.3 E 26 35 14 19 1013.3 - 0.6
01/04:00am 26.5 26.3 21.2 72 3.5 E 24 32 13 17 1013.6 - 0.6
01/03:30am 26.5 26.5 21.7 75 3.2 E 24 35 13 19 1013.8 - 0.6
01/03:00am 26.5 26.2 21.9 76 3.1 E 26 35 14 19 1014.2 - 0.6
01/02:30am 26.5 27.0 22.0 76 3.0 E 22 35 12 19 1014.4 - 0.6
01/02:00am 26.6 26.0 21.3 72 3.5 ESE 26 37 14 20 1014.8 1014.8 0.6
01/01:30am 26.5 26.7 22.0 76 3.0 E 24 33 13 18 1014.9 - 0.6
01/01:00am 26.4 26.9 22.7 80 2.5 E 24 33 13 18 1014.9 - 0.6
01/12:30am 26.7 26.2 22.1 76 3.1 E 28 41 15 22 1015.1 - 0.6
01/12:00am 26.8 26.5 22.5 77 2.9 ESE 28 37 15 20 1015.0 - 0.6
 
Date/Time
WST
Temp
°C
App
Temp
°C
Dew
Point
Rel
Hum
%
Delta-T
°C
Wind Press
QNH
hPa
Press
MSL
hPa
Rain
since 9 am
mm
Dir
 
Spd
km/h
Gust
km/h
Spd
kts
Gust
kts
31/11:30pm 26.7 25.8 22.9 79 2.6 ESE 32 43 17 23 1015.0 - 0.6
31/11:00pm 26.9 27.6 22.3 76 3.1 ESE 22 32 12 17 1015.0 1015.0 0.6
31/10:30pm 27.0 27.5 21.9 73 3.4 ESE 22 41 12 22 1015.0 - 0.6
31/10:00pm 27.0 27.9 22.6 77 3.0 ESE 22 33 12 18 1014.8 - 0.6
31/09:30pm 26.7 28.1 22.6 78 2.8 ESE 19 28 10 15 1014.5 - 0.6
31/09:06pm 26.2 23.6 22.2 78 2.7 E 39 44 21 24 1014.2 - 0.6
31/09:00pm 26.6 26.1 22.1 76 3.0 ESE 28 35 15 19 1014.1 - 0.6
31/08:30pm 27.1 27.9 22.4 75 3.2 ESE 22 35 12 19 1013.7 - 0.6
31/08:00pm 27.1 27.2 22.5 76 3.1 ESE 26 35 14 19 1013.3 1013.3 0.6
31/07:30pm 27.2 28.0 23.1 78 2.8 ESE 24 37 13 20 1013.2 - 0.6
31/07:00pm 27.4 27.5 21.9 72 3.7 ESE 24 37 13 20 1012.9 - 0.6
31/06:30pm 27.1 28.0 23.4 80 2.5 E 24 35 13 19 1012.7 - 0.6
31/06:00pm 26.7 28.3 23.9 84 1.9 ESE 22 33 12 18 1012.5 - 0.6
31/05:47pm 27.2 26.8 23.1 78 2.8 ESE 30 54 16 29 1012.5 - 0.0
31/05:46pm 27.7 27.5 22.7 74 3.4 ESE 28 35 15 19 1012.6 - 0.0
31/05:30pm 28.5 29.2 22.9 71 3.8 ESE 24 35 13 19 1012.4 - 0.0
31/05:00pm 28.0 27.8 22.7 73 3.6 ESE 28 35 15 19 1012.4 1012.4 0.0
31/04:30pm 28.4 28.8 22.5 70 4.0 ESE 24 33 13 18 1012.6 - 0.0
31/04:00pm 28.5 28.3 22.8 71 3.9 ESE 28 35 15 19 1012.9 - 0.0
31/03:30pm 28.7 29.0 23.0 71 3.9 ESE 26 35 14 19 1013.0 - 0.0
31/03:00pm 28.8 29.1 22.9 70 4.0 ESE 26 37 14 20 1013.6 - 0.0
31/02:30pm 28.8 28.9 22.6 69 4.2 ESE 26 37 14 20 1013.9 - 0.0
31/02:00pm 28.8 29.1 22.9 70 4.0 ESE 26 37 14 20 1014.0 1014.0 0.0
31/01:30pm 28.9 28.9 23.0 70 4.0 ESE 28 39 15 21 1014.3 - 0.0
31/01:00pm 28.8 28.5 21.8 66 4.7 E 26 35 14 19 1014.6 - 0.0
31/12:30pm 28.4 29.1 23.0 72 3.7 E 24 35 13 19 1014.8 - 0.0
31/12:00pm 28.5 28.4 22.3 69 4.2 E 26 35 14 19 1015.1 - 0.0
31/11:30am 28.3 27.6 22.5 71 3.9 E 30 35 16 19 1015.4 - 0.0
31/11:00am 28.1 28.2 22.5 71 3.8 E 26 33 14 18 1015.4 1015.4 1.0
31/10:30am 28.0 28.4 22.4 71 3.8 E 24 32 13 17 1015.4 - 1.0

Other Formats:

Comma delimited format used in spreadsheet applications
http://www.bom.gov.au/fwo/IDW60801/IDW60801.96996.axf

JavaScript Object Notation format (JSON) in row-major order
http://www.bom.gov.au/fwo/IDW60801/IDW60801.96996.json